createdAt,value
2022-12-26T00:01:38.263Z,27.48
2022-12-26T00:04:04.892Z,41.80
2022-12-26T00:06:32.028Z,32.38
2022-12-26T00:08:59.192Z,40.35
2022-12-26T00:11:26.875Z,36.55
2022-12-26T00:13:57.180Z,32.97
2022-12-26T00:16:24.941Z,44.63
2022-12-26T00:18:51.764Z,44.92
2022-12-26T00:21:18.756Z,27.30
2022-12-26T00:23:45.730Z,13.48
2022-12-26T00:26:16.679Z,25.98
2022-12-26T00:28:43.403Z,26.88
2022-12-26T00:31:14.549Z,43.42
2022-12-26T00:33:41.536Z,28.02
2022-12-26T00:36:09.765Z,27.80
2022-12-26T00:38:36.479Z,17.83
2022-12-26T00:41:03.495Z,24.95
2022-12-26T00:43:30.031Z,28.92
2022-12-26T00:45:57.741Z,19.55
2022-12-26T00:48:24.326Z,17.55
2022-12-26T00:50:50.865Z,22.05
2022-12-26T00:53:17.340Z,21.38
2022-12-26T00:55:43.807Z,10.52
2022-12-26T00:58:10.276Z,17.20
2022-12-26T01:00:37.104Z,19.83
2022-12-26T01:03:06.446Z,15.18
2022-12-26T01:05:32.966Z,17.98
2022-12-26T01:08:22.092Z,19.33
2022-12-26T01:10:47.220Z,19.30
2022-12-26T01:13:14.004Z,15.15
2022-12-26T01:15:40.496Z,14.88
2022-12-26T01:18:07.096Z,17.60
2022-12-26T01:20:33.564Z,17.50
2022-12-26T01:23:00.040Z,15.93
2022-12-26T01:25:26.474Z,14.88
2022-12-26T01:27:52.941Z,13.95
2022-12-26T01:30:19.782Z,17.05
2022-12-26T01:32:49.285Z,16.17
2022-12-26T01:35:15.716Z,15.50
2022-12-26T01:37:42.341Z,18.02
2022-12-26T01:40:09.079Z,18.05
2022-12-26T01:42:40.703Z,22.60
2022-12-26T01:45:25.391Z,18.17
2022-12-26T01:47:54.733Z,21.25
2022-12-26T01:50:27.065Z,20.17
2022-12-26T01:52:54.387Z,25.38
2022-12-26T01:55:22.163Z,15.10
2022-12-26T01:57:53.225Z,17.15
2022-12-26T02:00:19.730Z,26.15
2022-12-26T02:03:04.940Z,15.15
2022-12-26T02:05:34.938Z,18.30
2022-12-26T02:08:09.902Z,18.73
2022-12-26T02:10:39.072Z,19.88
2022-12-26T02:13:05.888Z,20.17
2022-12-26T02:15:32.465Z,21.50
2022-12-26T02:17:58.994Z,29.58
2022-12-26T02:20:27.419Z,26.67
2022-12-26T02:22:56.848Z,12.75
2022-12-26T02:25:23.403Z,19.75
2022-12-26T02:28:15.955Z,23.00
2022-12-26T02:31:01.338Z,21.00
2022-12-26T02:33:40.269Z,19.42
2022-12-26T02:36:25.275Z,21.15
2022-12-26T02:38:51.683Z,25.77
2022-12-26T02:41:50.659Z,20.55
2022-12-26T02:44:39.641Z,15.73
2022-12-26T02:47:19.120Z,22.67
2022-12-26T02:50:14.168Z,13.80
2022-12-26T02:53:05.373Z,18.17
2022-12-26T02:55:50.827Z,14.70
2022-12-26T02:58:45.791Z,17.73
2022-12-26T03:01:37.779Z,14.57
2022-12-26T03:04:25.089Z,18.48
2022-12-26T03:07:13.392Z,11.52
2022-12-26T03:09:59.275Z,12.75
2022-12-26T03:12:50.608Z,13.38
2022-12-26T03:15:18.093Z,8.75
2022-12-26T03:17:46.986Z,14.48
2022-12-26T03:20:17.815Z,12.90
2022-12-26T03:22:47.974Z,15.88
2022-12-26T03:25:37.983Z,11.82
2022-12-26T03:28:04.699Z,14.38
2022-12-26T03:30:49.473Z,11.40
2022-12-26T03:33:35.704Z,21.67
2022-12-26T03:36:02.699Z,14.70
2022-12-26T03:38:35.358Z,14.63
2022-12-26T03:41:36.232Z,16.67
2022-12-26T03:44:21.012Z,13.77
2022-12-26T03:47:12.391Z,21.50
2022-12-26T03:50:02.657Z,18.35
2022-12-26T03:53:17.648Z,17.98
2022-12-26T03:56:25.400Z,19.50
2022-12-26T03:59:31.863Z,22.25
2022-12-26T04:02:20.639Z,27.70
2022-12-26T04:05:06.561Z,24.98
2022-12-26T04:07:56.002Z,17.75
2022-12-26T04:10:45.887Z,21.98
2022-12-26T04:13:42.835Z,28.55
2022-12-26T04:16:39.952Z,23.85
2022-12-26T04:19:26.848Z,19.65
2022-12-26T04:22:22.915Z,26.65
2022-12-26T04:25:15.332Z,40.53
2022-12-26T04:28:00.463Z,23.73
2022-12-26T04:30:46.034Z,25.23
2022-12-26T04:33:41.080Z,24.17
2022-12-26T04:36:34.024Z,23.52
2022-12-26T04:39:21.353Z,23.98
2022-12-26T04:42:07.274Z,20.63
2022-12-26T04:44:37.101Z,26.35
2022-12-26T04:47:03.583Z,33.33
2022-12-26T04:49:48.574Z,25.23
2022-12-26T04:52:15.140Z,23.48
2022-12-26T04:54:41.730Z,28.48
2022-12-26T04:57:08.220Z,17.17
2022-12-26T04:59:34.676Z,22.38
2022-12-26T05:02:19.859Z,27.33
2022-12-26T05:05:05.034Z,31.83
2022-12-26T05:07:52.168Z,25.85
2022-12-26T05:10:20.546Z,32.30
2022-12-26T05:12:47.091Z,24.92
2022-12-26T05:15:14.082Z,28.27
2022-12-26T05:17:59.038Z,21.67
2022-12-26T05:20:44.171Z,26.40
2022-12-26T05:23:37.845Z,22.73
2022-12-26T05:26:23.010Z,21.83
2022-12-26T05:28:59.004Z,23.67
2022-12-26T05:31:29.771Z,33.33
2022-12-26T05:34:10.472Z,26.42
2022-12-26T05:36:51.404Z,34.92
2022-12-26T05:39:17.925Z,25.88
2022-12-26T05:41:44.616Z,17.77
2022-12-26T05:44:11.165Z,29.30
2022-12-26T05:46:37.961Z,29.23
2022-12-26T05:49:04.953Z,28.42
2022-12-26T05:51:32.893Z,27.17
2022-12-26T05:53:59.546Z,23.08
2022-12-26T05:56:26.102Z,27.50
2022-12-26T05:58:56.498Z,34.70
2022-12-26T06:01:23.626Z,32.83
2022-12-26T06:03:52.449Z,43.38
2022-12-26T06:06:20.185Z,27.83
2022-12-26T06:08:50.289Z,19.70
2022-12-26T06:11:17.303Z,33.90
2022-12-26T06:13:43.963Z,27.75
2022-12-26T06:16:12.372Z,21.25
2022-12-26T06:18:39.197Z,17.42
2022-12-26T06:21:06.497Z,21.80
2022-12-26T06:23:33.356Z,22.95
2022-12-26T06:25:59.841Z,25.25
2022-12-26T06:28:26.363Z,37.22
2022-12-26T06:30:52.871Z,18.40
2022-12-26T06:33:19.385Z,19.92
2022-12-26T06:35:46.190Z,20.50
2022-12-26T06:38:12.790Z,24.75
2022-12-26T06:40:42.368Z,33.30
2022-12-26T06:43:08.941Z,39.05
2022-12-26T06:45:35.567Z,29.40
2022-12-26T06:48:02.397Z,27.63
2022-12-26T06:50:28.881Z,21.00
2022-12-26T06:52:55.307Z,16.02
2022-12-26T06:55:21.845Z,13.63
2022-12-26T06:57:48.266Z,17.52
2022-12-26T07:00:15.151Z,15.40
2022-12-26T07:02:41.732Z,15.98
2022-12-26T07:05:08.342Z,14.88
2022-12-26T07:07:34.911Z,13.63
2022-12-26T07:10:01.359Z,16.73
2022-12-26T07:12:27.833Z,12.75
2022-12-26T07:14:58.050Z,9.40
2022-12-26T07:17:27.901Z,8.68
2022-12-26T07:19:54.512Z,10.13
2022-12-26T07:22:21.143Z,8.98
2022-12-26T07:24:47.661Z,14.98
2022-12-26T07:27:14.177Z,13.77
2022-12-26T07:29:40.771Z,16.98
2022-12-26T07:32:07.466Z,12.07
2022-12-26T07:34:34.038Z,11.15
2022-12-26T07:37:01.778Z,15.25
2022-12-26T07:39:28.312Z,11.13
2022-12-26T07:41:57.584Z,7.25
2022-12-26T07:44:24.591Z,5.45
2022-12-26T07:46:51.245Z,6.45
2022-12-26T07:49:17.682Z,8.10
2022-12-26T07:51:44.203Z,10.95
2022-12-26T07:54:11.578Z,7.80
2022-12-26T07:56:38.947Z,4.70
2022-12-26T07:59:05.751Z,5.47
2022-12-26T08:01:32.438Z,6.25
2022-12-26T08:03:59.060Z,4.82
2022-12-26T08:06:25.794Z,5.38
2022-12-26T08:08:52.549Z,2.75
2022-12-26T08:11:22.229Z,3.13
2022-12-26T08:13:48.839Z,3.63
2022-12-26T08:16:15.935Z,2.65
2022-12-26T08:18:42.711Z,2.80
2022-12-26T08:21:09.888Z,4.35
2022-12-26T08:23:36.391Z,2.78
2022-12-26T08:26:10.478Z,3.22
2022-12-26T08:28:36.998Z,2.97
2022-12-26T08:31:07.081Z,2.60
2022-12-26T08:33:33.628Z,4.00
2022-12-26T08:36:03.824Z,3.28
2022-12-26T08:38:31.683Z,2.50
2022-12-26T08:40:58.688Z,1.90
2022-12-26T08:43:58.413Z,2.90
2022-12-26T08:46:11.914Z,2.40
2022-12-26T08:48:39.595Z,3.25
2022-12-26T08:51:08.598Z,3.92
2022-12-26T08:53:36.139Z,3.45
2022-12-26T08:56:03.967Z,3.70
2022-12-26T08:58:30.693Z,4.47
2022-12-26T09:01:05.707Z,4.00
2022-12-26T09:03:32.583Z,3.78
2022-12-26T09:06:05.712Z,4.07
2022-12-26T09:08:36.551Z,2.83
2022-12-26T09:11:10.672Z,3.55
2022-12-26T09:13:38.070Z,3.63
2022-12-26T09:16:07.863Z,3.58
2022-12-26T09:18:34.648Z,2.92
2022-12-26T09:21:02.169Z,3.20
2022-12-26T09:23:29.421Z,2.22
2022-12-26T09:25:56.211Z,2.17
2022-12-26T09:28:22.764Z,3.50
2022-12-26T09:30:49.351Z,3.20
2022-12-26T09:33:15.930Z,2.83
2022-12-26T09:35:43.725Z,3.10
2022-12-26T09:38:10.258Z,2.70
2022-12-26T09:40:47.802Z,2.28
2022-12-26T09:43:17.096Z,3.40
2022-12-26T09:45:53.889Z,2.20
2022-12-26T09:48:25.355Z,2.55
2022-12-26T09:50:51.914Z,2.95
2022-12-26T09:53:22.432Z,2.45
2022-12-26T09:55:52.023Z,2.45
2022-12-26T09:58:18.479Z,2.90
2022-12-26T10:00:52.872Z,2.30
2022-12-26T10:03:20.104Z,2.30
2022-12-26T10:05:55.187Z,2.72
2022-12-26T10:08:32.268Z,2.67
2022-12-26T10:11:01.353Z,2.55
2022-12-26T10:13:41.649Z,2.35
2022-12-26T10:16:15.362Z,3.00
2022-12-26T10:19:02.508Z,2.28
2022-12-26T10:21:35.081Z,2.10
2022-12-26T10:24:04.277Z,2.15
2022-12-26T10:26:42.079Z,1.80
2022-12-26T10:29:08.483Z,2.35
2022-12-26T10:31:44.149Z,2.00
2022-12-26T10:34:13.388Z,2.50
2022-12-26T10:36:45.460Z,2.45
2022-12-26T10:39:15.337Z,2.10
2022-12-26T10:41:43.036Z,2.47
2022-12-26T10:44:11.650Z,2.38
2022-12-26T10:46:42.723Z,2.10
2022-12-26T10:49:11.165Z,2.25
2022-12-26T10:51:38.200Z,1.65
2022-12-26T10:54:10.901Z,2.17
2022-12-26T10:56:38.112Z,1.50
2022-12-26T10:59:04.926Z,1.70
2022-12-26T11:01:36.436Z,2.00
2022-12-26T11:04:04.679Z,1.77
2022-12-26T11:06:37.553Z,2.20
2022-12-26T11:09:04.392Z,1.80
2022-12-26T11:11:45.860Z,1.60
2022-12-26T11:14:33.839Z,2.00
2022-12-26T11:17:02.707Z,1.95
2022-12-26T11:19:31.387Z,2.05
2022-12-26T11:22:17.566Z,2.67
2022-12-26T11:24:44.310Z,2.17
2022-12-26T11:27:24.052Z,2.53
2022-12-26T11:30:10.004Z,1.65
2022-12-26T11:32:36.769Z,1.27
2022-12-26T11:35:03.372Z,2.17
2022-12-26T11:37:31.524Z,1.83
2022-12-26T11:39:58.245Z,1.63
2022-12-26T11:42:25.428Z,1.95
2022-12-26T11:44:53.640Z,1.45
2022-12-26T11:47:21.325Z,1.67
2022-12-26T11:49:47.865Z,1.27
2022-12-26T11:52:32.841Z,1.58
2022-12-26T11:54:59.548Z,1.20
2022-12-26T11:57:30.434Z,1.55
2022-12-26T12:00:15.770Z,1.50
2022-12-26T12:02:42.429Z,1.58
2022-12-26T12:05:32.387Z,1.70
2022-12-26T12:08:37.596Z,1.58
2022-12-26T12:11:19.278Z,1.60
2022-12-26T12:13:51.973Z,1.90
2022-12-26T12:16:30.834Z,1.63
2022-12-26T12:19:02.809Z,1.90
2022-12-26T12:21:38.622Z,1.92
2022-12-26T12:24:19.819Z,1.80
2022-12-26T12:26:51.156Z,1.52
2022-12-26T12:29:25.708Z,3.15
2022-12-26T12:32:12.781Z,4.57
2022-12-26T12:34:57.792Z,4.13
2022-12-26T12:37:33.397Z,2.95
2022-12-26T12:40:00.995Z,1.42
2022-12-26T12:42:29.413Z,1.83
2022-12-26T12:45:14.824Z,1.35
2022-12-26T12:47:46.062Z,2.00
2022-12-26T12:50:32.418Z,2.00
2022-12-26T12:53:24.832Z,2.95
2022-12-26T12:56:12.425Z,2.28
2022-12-26T12:58:39.060Z,2.20
2022-12-26T13:01:21.856Z,2.63
2022-12-26T13:04:08.680Z,2.17
2022-12-26T13:06:56.889Z,2.10
2022-12-26T13:09:28.688Z,2.85
2022-12-26T13:12:01.828Z,2.63
2022-12-26T13:14:35.570Z,1.90
2022-12-26T13:17:26.472Z,2.83
2022-12-26T13:20:05.060Z,2.08
2022-12-26T13:22:54.553Z,2.20
2022-12-26T13:25:22.357Z,3.00
2022-12-26T13:27:49.601Z,2.75
2022-12-26T13:30:17.072Z,2.53
2022-12-26T13:32:46.771Z,3.00
2022-12-26T13:35:32.325Z,3.00
2022-12-26T13:37:58.954Z,2.95
2022-12-26T13:40:27.225Z,3.35
2022-12-26T13:43:16.002Z,2.70
2022-12-26T13:45:45.714Z,2.00
2022-12-26T13:48:15.404Z,2.67
2022-12-26T13:50:55.151Z,1.80
2022-12-26T13:53:26.380Z,2.10
2022-12-26T13:55:54.485Z,1.75
2022-12-26T13:58:36.581Z,1.65
2022-12-26T14:01:09.463Z,2.10
2022-12-26T14:03:51.575Z,2.10
2022-12-26T14:06:21.271Z,2.17
2022-12-26T14:09:12.478Z,1.58
2022-12-26T14:11:54.490Z,1.58
2022-12-26T14:14:53.879Z,2.00
2022-12-26T14:17:23.457Z,2.47
2022-12-26T14:20:03.163Z,1.67
2022-12-26T14:22:39.062Z,2.10
2022-12-26T14:25:28.962Z,2.45
2022-12-26T14:28:33.829Z,1.80
2022-12-26T14:31:09.869Z,2.40
2022-12-26T14:33:44.693Z,2.30
2022-12-26T14:36:11.144Z,2.45
2022-12-26T14:38:51.304Z,1.77
2022-12-26T14:41:36.919Z,2.10
2022-12-26T14:44:10.974Z,2.47
2022-12-26T14:46:38.789Z,2.42
2022-12-26T14:49:28.141Z,2.08
2022-12-26T14:52:17.745Z,1.60
2022-12-26T14:54:51.114Z,2.30
2022-12-26T14:57:37.008Z,1.95
2022-12-26T15:00:14.793Z,2.28
2022-12-26T15:02:45.326Z,1.50
2022-12-26T15:05:25.701Z,1.80
2022-12-26T15:08:11.025Z,1.98
2022-12-26T15:10:58.502Z,1.95
2022-12-26T15:13:44.926Z,2.20
2022-12-26T15:16:11.624Z,2.55
2022-12-26T15:18:56.607Z,2.40
2022-12-26T15:21:45.434Z,2.40
2022-12-26T15:25:08.388Z,2.88
2022-12-26T15:27:20.761Z,3.28
2022-12-26T15:29:53.446Z,2.17
2022-12-26T15:32:27.699Z,3.60
2022-12-26T15:35:08.376Z,2.65
2022-12-26T15:37:42.617Z,3.30
2022-12-26T15:40:37.256Z,2.50
2022-12-26T15:43:06.978Z,3.10
2022-12-26T15:45:39.419Z,2.30
2022-12-26T15:48:24.833Z,2.30
2022-12-26T15:51:09.401Z,2.35
2022-12-26T15:53:38.709Z,2.35
2022-12-26T15:56:24.335Z,2.53
2022-12-26T15:59:09.932Z,2.38
2022-12-26T16:01:41.114Z,2.72
2022-12-26T16:04:18.039Z,2.17
2022-12-26T16:07:06.166Z,2.25
2022-12-26T16:09:32.613Z,2.47
2022-12-26T16:12:00.293Z,3.00
2022-12-26T16:14:35.860Z,2.50
2022-12-26T16:17:14.780Z,2.95
2022-12-26T16:19:45.539Z,2.50
2022-12-26T16:22:46.826Z,2.60
2022-12-26T16:25:13.666Z,3.60
2022-12-26T16:27:40.816Z,3.50
2022-12-26T16:30:14.185Z,2.50
2022-12-26T16:32:43.253Z,3.30
2022-12-26T16:35:25.270Z,2.72
2022-12-26T16:37:53.276Z,2.80
2022-12-26T16:40:41.536Z,2.90
2022-12-26T16:43:14.340Z,2.80
2022-12-26T16:45:41.712Z,3.00
2022-12-26T16:48:08.968Z,2.53
2022-12-26T16:50:38.124Z,3.10
2022-12-26T16:53:12.568Z,2.65
2022-12-26T16:55:43.574Z,2.53
2022-12-26T16:58:22.328Z,3.17
2022-12-26T17:00:54.561Z,2.97
2022-12-26T17:03:36.287Z,2.97
2022-12-26T17:06:13.267Z,3.30
2022-12-26T17:08:42.438Z,2.78
2022-12-26T17:11:09.521Z,3.08
2022-12-26T17:13:39.001Z,3.30
2022-12-26T17:16:11.992Z,3.45
2022-12-26T17:18:44.950Z,2.72
2022-12-26T17:21:34.656Z,2.30
2022-12-26T17:24:07.354Z,3.40
2022-12-26T17:26:34.916Z,3.35
2022-12-26T17:29:01.692Z,2.63
2022-12-26T17:31:34.624Z,2.47
2022-12-26T17:34:03.808Z,2.00
2022-12-26T17:37:17.184Z,2.17
2022-12-26T17:39:24.316Z,1.92
2022-12-26T17:41:55.735Z,2.28
2022-12-26T17:44:41.439Z,2.50
2022-12-26T17:47:19.692Z,2.10
2022-12-26T17:49:46.981Z,2.15
2022-12-26T17:52:15.113Z,2.60
2022-12-26T17:54:44.723Z,2.25
2022-12-26T17:57:25.777Z,2.78
2022-12-26T17:59:53.173Z,2.40
2022-12-26T18:02:29.397Z,2.45
2022-12-26T18:04:56.805Z,2.17
2022-12-26T18:07:31.313Z,2.50
2022-12-26T18:09:59.295Z,2.47
2022-12-26T18:12:27.998Z,3.17
2022-12-26T18:15:01.107Z,2.57
2022-12-26T18:17:29.095Z,3.17
2022-12-26T18:19:57.723Z,3.23
2022-12-26T18:22:25.442Z,2.60
2022-12-26T18:24:52.097Z,2.23
2022-12-26T18:27:20.270Z,2.90
2022-12-26T18:29:47.497Z,2.97
2022-12-26T18:32:35.695Z,3.03
2022-12-26T18:35:02.272Z,3.13
2022-12-26T18:37:33.523Z,3.30
2022-12-26T18:40:03.077Z,3.47
2022-12-26T18:42:29.909Z,3.23
2022-12-26T18:44:56.608Z,3.10
2022-12-26T18:47:26.065Z,2.83
2022-12-26T18:49:52.666Z,3.10
2022-12-26T18:52:20.925Z,2.90
2022-12-26T18:54:48.387Z,2.93
2022-12-26T18:57:19.809Z,3.57
2022-12-26T18:59:48.212Z,3.40
2022-12-26T19:02:16.016Z,3.00
2022-12-26T19:04:42.856Z,3.63
2022-12-26T19:07:13.213Z,2.87
2022-12-26T19:09:45.583Z,3.20
2022-12-26T19:12:12.581Z,3.57
2022-12-26T19:14:39.498Z,3.40
2022-12-26T19:17:08.339Z,3.77
2022-12-26T19:19:36.096Z,3.70
2022-12-26T19:22:02.998Z,3.40
2022-12-26T19:24:29.549Z,3.90
2022-12-26T19:26:56.465Z,3.50
2022-12-26T19:29:23.025Z,4.53
2022-12-26T19:31:49.690Z,4.10
2022-12-26T19:34:16.265Z,3.93
2022-12-26T19:36:46.011Z,4.27
2022-12-26T19:39:13.101Z,3.80
2022-12-26T19:41:40.998Z,4.33
2022-12-26T19:44:07.502Z,4.40
2022-12-26T19:46:34.100Z,4.10
2022-12-26T19:49:01.188Z,3.60
2022-12-26T19:51:27.899Z,4.13
2022-12-26T19:53:54.488Z,4.47
2022-12-26T19:56:25.035Z,5.00
2022-12-26T19:58:56.341Z,4.93
2022-12-26T20:01:28.157Z,4.60
2022-12-26T20:03:58.938Z,5.30
2022-12-26T20:06:26.967Z,5.27
2022-12-26T20:08:55.921Z,3.97
2022-12-26T20:11:24.593Z,4.93
2022-12-26T20:13:51.615Z,4.73
2022-12-26T20:17:02.699Z,4.83
2022-12-26T20:19:06.198Z,4.33
2022-12-26T20:21:32.717Z,4.33
2022-12-26T20:23:59.757Z,4.07
2022-12-26T20:26:27.202Z,4.93
2022-12-26T20:28:56.457Z,5.47
2022-12-26T20:31:23.228Z,5.67
2022-12-26T20:33:50.865Z,6.00
2022-12-26T20:36:28.294Z,5.10
2022-12-26T20:38:55.828Z,5.07
2022-12-26T20:41:22.566Z,5.00
2022-12-26T20:43:49.676Z,4.87
2022-12-26T20:46:17.427Z,4.47
2022-12-26T20:48:44.347Z,4.53
2022-12-26T20:51:12.030Z,4.80
2022-12-26T20:53:38.529Z,4.57
2022-12-26T20:56:05.274Z,3.90
2022-12-26T20:58:33.201Z,4.03
2022-12-26T21:01:13.322Z,4.17
2022-12-26T21:03:40.062Z,3.40
2022-12-26T21:06:09.523Z,3.30
2022-12-26T21:08:36.570Z,3.93
2022-12-26T21:11:07.252Z,3.30
2022-12-26T21:13:35.505Z,3.60
2022-12-26T21:16:10.137Z,3.80
2022-12-26T21:18:37.176Z,4.40
2022-12-26T21:21:24.052Z,4.10
2022-12-26T21:23:54.360Z,3.60
2022-12-26T21:26:20.816Z,3.77
2022-12-26T21:28:47.258Z,3.67
2022-12-26T21:31:13.824Z,3.23
2022-12-26T21:33:44.499Z,3.87
2022-12-26T21:36:12.089Z,3.00
2022-12-26T21:38:39.040Z,3.60
2022-12-26T21:41:09.807Z,3.33
2022-12-26T21:43:36.822Z,3.77
2022-12-26T21:46:11.702Z,4.80
2022-12-26T21:48:38.246Z,3.37
2022-12-26T21:51:08.842Z,4.20
2022-12-26T21:53:35.792Z,3.67
2022-12-26T21:56:09.102Z,3.67
2022-12-26T21:58:55.809Z,3.60
2022-12-26T22:01:23.034Z,3.53
2022-12-26T22:04:08.883Z,3.90
2022-12-26T22:06:35.896Z,4.33
2022-12-26T22:09:02.702Z,4.10
2022-12-26T22:11:47.775Z,4.37
2022-12-26T22:14:14.411Z,3.77
2022-12-26T22:16:40.967Z,4.40
2022-12-26T22:19:08.067Z,3.77
2022-12-26T22:21:35.849Z,4.17
2022-12-26T22:24:02.447Z,4.37
2022-12-26T22:26:29.602Z,4.70
2022-12-26T22:28:56.945Z,4.43
2022-12-26T22:31:23.399Z,4.27
2022-12-26T22:34:02.268Z,4.97
2022-12-26T22:36:29.693Z,4.80
2022-12-26T22:38:56.528Z,5.13
2022-12-26T22:41:23.337Z,5.17
2022-12-26T22:43:49.779Z,4.63
2022-12-26T22:46:16.596Z,4.40
2022-12-26T22:48:43.225Z,4.53
2022-12-26T22:51:15.161Z,3.90
2022-12-26T22:53:42.362Z,4.53
2022-12-26T22:56:09.892Z,5.27
2022-12-26T22:58:36.393Z,4.70
2022-12-26T23:01:03.186Z,5.17
2022-12-26T23:03:29.835Z,5.07
2022-12-26T23:05:56.646Z,4.27
2022-12-26T23:08:26.940Z,4.53
2022-12-26T23:10:54.829Z,3.93
2022-12-26T23:13:21.555Z,4.43
2022-12-26T23:16:03.684Z,4.63
2022-12-26T23:18:56.264Z,5.00
2022-12-26T23:21:39.408Z,5.30
2022-12-26T23:24:30.849Z,5.30
2022-12-26T23:27:20.051Z,5.47
2022-12-26T23:30:05.789Z,5.47
2022-12-26T23:32:33.021Z,5.10
2022-12-26T23:34:59.645Z,4.97
2022-12-26T23:37:26.889Z,4.83
2022-12-26T23:39:53.374Z,4.63
2022-12-26T23:42:25.831Z,5.13
2022-12-26T23:44:54.578Z,4.50
2022-12-26T23:47:21.052Z,4.50
2022-12-26T23:49:47.500Z,4.63
2022-12-26T23:52:14.192Z,4.97
2022-12-26T23:54:40.911Z,3.93
2022-12-26T23:57:07.672Z,4.53
2022-12-26T23:59:35.206Z,4.90
